Bundi Airport


Codes: BNT/BNT
Name: Bundi Airport
City: Bundi
Country: Papua New Guinea
Elevation: 4400 ft.

Photos at Bundi Airport


   Photos courtesy of SpottingLog. You can add your own sightings and photos by signing up for a free trial today.



No photos found.

Weather at Bundi Airport


Time (UTC)DescriptionTempratureWindCloud coverageVisibilityPressureHumidity
16-Jun-2024 09:00Light Rain21°C2 mph, SW75%10000m1015hPa93%
16-Jun-2024 12:00Light Rain21°C4 mph, SW67%10000m1016hPa94%
16-Jun-2024 15:00Light Rain20°C4 mph, SW54%10000m1016hPa92%
16-Jun-2024 18:00Scattered Clouds19°C4 mph, SW34%10000m1015hPa90%
16-Jun-2024 21:00Clear Sky19°C4 mph, SW2%10000m1016hPa86%
17-Jun-2024 00:00Clear Sky26°C4 mph, NE1%10000m1015hPa65%
17-Jun-2024 03:00Light Rain26°C4 mph, NE22%10000m1013hPa71%
17-Jun-2024 06:00Light Rain25°C2 mph, NE52%7485m1012hPa79%
17-Jun-2024 09:00Light Rain21°C2 mph, SW84%10000m1015hPa95%
17-Jun-2024 12:00Light Rain20°C2 mph, SW68%10000m1017hPa96%
17-Jun-2024 15:00Light Rain20°C2 mph, SW94%10000m1016hPa96%
17-Jun-2024 18:00Overcast Clouds19°C4 mph, SW93%10000m1015hPa95%
17-Jun-2024 21:00Broken Clouds19°C4 mph, SW69%10000m1016hPa93%
18-Jun-2024 00:00Broken Clouds25°C4 mph, NE73%10000m1015hPa65%
18-Jun-2024 03:00Scattered Clouds27°C7 mph, NE38%10000m1012hPa61%
18-Jun-2024 06:00Light Rain25°C2 mph, NE60%10000m1011hPa68%
18-Jun-2024 09:00Broken Clouds21°C4 mph, SW83%10000m1014hPa91%
18-Jun-2024 12:00Light Rain20°C2 mph, SW85%10000m1016hPa89%
18-Jun-2024 15:00Broken Clouds19°C4 mph, SW55%10000m1015hPa87%
18-Jun-2024 18:00Scattered Clouds19°C4 mph, SW44%10000m1014hPa83%
18-Jun-2024 21:00Scattered Clouds19°C4 mph, SW35%10000m1015hPa82%
19-Jun-2024 00:00Broken Clouds24°C4 mph, NE68%10000m1015hPa66%
19-Jun-2024 03:00Overcast Clouds26°C7 mph, NE100%10000m1012hPa66%
19-Jun-2024 06:00Light Rain24°C2 mph, NE100%10000m1011hPa74%
19-Jun-2024 09:00Light Rain21°C2 mph, SW99%10000m1013hPa93%
19-Jun-2024 12:00Light Rain20°C2 mph, SW99%10000m1015hPa90%
19-Jun-2024 15:00Overcast Clouds20°C2 mph, S95%10000m1014hPa91%
19-Jun-2024 18:00Overcast Clouds19°C4 mph, SW93%10000m1013hPa92%
19-Jun-2024 21:00Broken Clouds19°C4 mph, SW82%10000m1014hPa87%
20-Jun-2024 00:00Overcast Clouds25°C4 mph, NE86%10000m1014hPa63%
20-Jun-2024 03:00Light Rain25°C4 mph, NE94%7904m1012hPa81%
20-Jun-2024 06:00Light Rain24°C2 mph, NE88%5412m1011hPa80%
20-Jun-2024 09:00Light Rain20°C4 mph, SW88%10000m1014hPa96%
20-Jun-2024 12:00Light Rain20°C4 mph, S93%10000m1016hPa96%
20-Jun-2024 15:00Light Rain19°C4 mph, SW93%10000m1014hPa95%
20-Jun-2024 18:00Light Rain19°C4 mph, SW96%10000m1014hPa92%
20-Jun-2024 21:00Overcast Clouds19°C4 mph, SW100%10000m1015hPa87%
21-Jun-2024 00:00Overcast Clouds25°C4 mph, NE100%10000m1015hPa68%
21-Jun-2024 03:00Light Rain24°C4 mph, NE100%4862m1013hPa82%
21-Jun-2024 06:00Light Rain21°C2 mph, NE100%4580m1012hPa96%